sensor_id;sensor_type;location;lat;lon;timestamp;P1;durP1;ratioP1;P2;durP2;ratioP2
6638;SDS011;3355;52.882;8.430;2024-03-23T00:55:37;14.20;;;3.77;;
6638;SDS011;3355;52.882;8.430;2024-03-23T00:58:06;9.77;;;2.90;;
6638;SDS011;3355;52.882;8.430;2024-03-23T01:00:32;10.50;;;3.33;;
6638;SDS011;3355;52.882;8.430;2024-03-23T01:02:58;11.50;;;3.37;;
6638;SDS011;3355;52.882;8.430;2024-03-23T01:05:41;13.97;;;3.80;;
6638;SDS011;3355;52.882;8.430;2024-03-23T01:08:24;6.53;;;2.70;;
6638;SDS011;3355;52.882;8.430;2024-03-23T01:11:18;10.17;;;2.50;;
6638;SDS011;3355;52.882;8.430;2024-03-23T01:13:48;6.53;;;3.03;;
6638;SDS011;3355;52.882;8.430;2024-03-23T01:16:26;9.63;;;3.40;;
6638;SDS011;3355;52.882;8.430;2024-03-23T01:18:53;8.37;;;3.37;;
6638;SDS011;3355;52.882;8.430;2024-03-23T01:21:21;12.10;;;3.47;;
6638;SDS011;3355;52.882;8.430;2024-03-23T01:23:48;12.30;;;3.07;;
6638;SDS011;3355;52.882;8.430;2024-03-23T01:26:15;6.10;;;2.63;;
6638;SDS011;3355;52.882;8.430;2024-03-23T01:28:49;9.60;;;2.87;;
6638;SDS011;3355;52.882;8.430;2024-03-23T01:31:17;9.13;;;3.20;;
6638;SDS011;3355;52.882;8.430;2024-03-23T01:33:43;9.80;;;3.13;;
6638;SDS011;3355;52.882;8.430;2024-03-23T01:36:10;8.60;;;2.90;;
6638;SDS011;3355;52.882;8.430;2024-03-23T01:38:36;8.37;;;3.37;;
6638;SDS011;3355;52.882;8.430;2024-03-23T01:41:03;8.60;;;3.57;;
6638;SDS011;3355;52.882;8.430;2024-03-23T01:43:30;7.60;;;2.67;;
6638;SDS011;3355;52.882;8.430;2024-03-23T01:46:00;12.03;;;3.60;;
6638;SDS011;3355;52.882;8.430;2024-03-23T01:48:26;9.97;;;3.20;;
6638;SDS011;3355;52.882;8.430;2024-03-23T01:50:53;9.97;;;3.67;;
6638;SDS011;3355;52.882;8.430;2024-03-23T01:53:19;11.43;;;3.30;;
6638;SDS011;3355;52.882;8.430;2024-03-23T01:55:48;9.27;;;3.50;;
6638;SDS011;3355;52.882;8.430;2024-03-23T01:58:15;11.37;;;3.17;;
6638;SDS011;3355;52.882;8.430;2024-03-23T02:00:42;12.30;;;3.00;;
6638;SDS011;3355;52.882;8.430;2024-03-23T07:08:34;12.50;;;4.37;;
6638;SDS011;3355;52.882;8.430;2024-03-23T07:11:01;9.87;;;4.73;;
6638;SDS011;3355;52.882;8.430;2024-03-23T07:13:27;10.70;;;3.60;;
6638;SDS011;3355;52.882;8.430;2024-03-23T07:15:54;14.40;;;5.30;;
6638;SDS011;3355;52.882;8.430;2024-03-23T07:18:20;11.70;;;4.53;;
6638;SDS011;3355;52.882;8.430;2024-03-23T07:20:56;14.43;;;4.50;;
6638;SDS011;3355;52.882;8.430;2024-03-23T07:23:22;10.50;;;3.97;;
6638;SDS011;3355;52.882;8.430;2024-03-23T07:25:59;16.20;;;5.50;;
6638;SDS011;3355;52.882;8.430;2024-03-23T07:28:25;11.00;;;4.40;;
6638;SDS011;3355;52.882;8.430;2024-03-23T07:31:01;12.70;;;4.57;;
6638;SDS011;3355;52.882;8.430;2024-03-23T07:33:26;11.80;;;4.40;;
6638;SDS011;3355;52.882;8.430;2024-03-23T07:35:53;13.20;;;5.20;;
6638;SDS011;3355;52.882;8.430;2024-03-23T07:38:19;12.87;;;5.50;;
6638;SDS011;3355;52.882;8.430;2024-03-23T07:40:45;10.07;;;3.80;;
6638;SDS011;3355;52.882;8.430;2024-03-23T07:43:13;7.30;;;3.93;;
6638;SDS011;3355;52.882;8.430;2024-03-23T07:45:39;9.10;;;4.17;;
6638;SDS011;3355;52.882;8.430;2024-03-23T07:48:05;7.83;;;3.53;;
6638;SDS011;3355;52.882;8.430;2024-03-23T07:50:31;15.53;;;4.30;;
6638;SDS011;3355;52.882;8.430;2024-03-23T07:52:58;7.30;;;3.40;;
6638;SDS011;3355;52.882;8.430;2024-03-23T07:55:23;15.20;;;3.30;;
6638;SDS011;3355;52.882;8.430;2024-03-23T07:57:50;6.63;;;3.00;;
6638;SDS011;3355;52.882;8.430;2024-03-23T08:00:17;14.37;;;3.60;;
6638;SDS011;3355;52.882;8.430;2024-03-23T08:02:44;7.53;;;3.00;;
6638;SDS011;3355;52.882;8.430;2024-03-23T08:05:09;7.57;;;3.10;;
6638;SDS011;3355;52.882;8.430;2024-03-23T08:07:36;10.97;;;3.43;;
6638;SDS011;3355;52.882;8.430;2024-03-23T08:10:02;11.10;;;3.40;;
6638;SDS011;3355;52.882;8.430;2024-03-23T08:12:31;6.13;;;3.53;;
6638;SDS011;3355;52.882;8.430;2024-03-23T08:14:57;10.27;;;3.20;;
6638;SDS011;3355;52.882;8.430;2024-03-23T08:17:26;12.47;;;3.43;;
6638;SDS011;3355;52.882;8.430;2024-03-23T08:19:51;8.60;;;3.07;;
6638;SDS011;3355;52.882;8.430;2024-03-23T08:22:18;8.23;;;2.83;;
6638;SDS011;3355;52.882;8.430;2024-03-23T08:24:44;8.43;;;4.10;;
6638;SDS011;3355;52.882;8.430;2024-03-23T08:27:13;11.00;;;3.73;;
6638;SDS011;3355;52.882;8.430;2024-03-23T08:29:39;7.70;;;3.77;;
6638;SDS011;3355;52.882;8.430;2024-03-23T08:32:05;7.60;;;3.73;;
6638;SDS011;3355;52.882;8.430;2024-03-23T08:34:32;9.50;;;2.77;;
6638;SDS011;3355;52.882;8.430;2024-03-23T08:37:07;13.37;;;3.20;;
6638;SDS011;3355;52.882;8.430;2024-03-23T08:39:33;10.07;;;3.67;;
6638;SDS011;3355;52.882;8.430;2024-03-23T08:41:59;9.87;;;3.13;;
6638;SDS011;3355;52.882;8.430;2024-03-23T08:44:28;8.50;;;3.53;;
6638;SDS011;3355;52.882;8.430;2024-03-23T08:46:57;7.73;;;2.70;;
6638;SDS011;3355;52.882;8.430;2024-03-23T08:49:36;2.80;;;1.77;;
6638;SDS011;3355;52.882;8.430;2024-03-23T08:52:10;3.77;;;0.70;;
6638;SDS011;3355;52.882;8.430;2024-03-23T08:54:36;2.93;;;1.27;;
6638;SDS011;3355;52.882;8.430;2024-03-23T08:57:02;3.23;;;0.97;;
6638;SDS011;3355;52.882;8.430;2024-03-23T08:59:28;4.23;;;1.40;;
6638;SDS011;3355;52.882;8.430;2024-03-23T09:01:54;5.00;;;1.30;;
6638;SDS011;3355;52.882;8.430;2024-03-23T09:04:19;2.80;;;1.10;;
6638;SDS011;3355;52.882;8.430;2024-03-23T09:06:46;4.60;;;1.33;;
6638;SDS011;3355;52.882;8.430;2024-03-23T09:09:13;3.37;;;1.53;;
6638;SDS011;3355;52.882;8.430;2024-03-23T09:11:39;4.50;;;1.70;;
6638;SDS011;3355;52.882;8.430;2024-03-23T09:14:05;4.40;;;1.80;;
6638;SDS011;3355;52.882;8.430;2024-03-23T09:16:31;2.73;;;1.20;;
6638;SDS011;3355;52.882;8.430;2024-03-23T09:18:57;3.20;;;1.23;;
6638;SDS011;3355;52.882;8.430;2024-03-23T09:21:24;4.17;;;1.70;;
6638;SDS011;3355;52.882;8.430;2024-03-23T09:23:51;2.83;;;1.73;;
6638;SDS011;3355;52.882;8.430;2024-03-23T09:26:19;7.70;;;2.03;;
6638;SDS011;3355;52.882;8.430;2024-03-23T09:28:44;4.10;;;2.10;;
6638;SDS011;3355;52.882;8.430;2024-03-23T09:31:11;5.33;;;1.87;;
6638;SDS011;3355;52.882;8.430;2024-03-23T09:33:39;3.60;;;1.57;;
6638;SDS011;3355;52.882;8.430;2024-03-23T09:36:09;5.63;;;1.87;;
6638;SDS011;3355;52.882;8.430;2024-03-23T09:38:43;7.20;;;2.13;;
6638;SDS011;3355;52.882;8.430;2024-03-23T09:41:10;3.30;;;1.60;;
6638;SDS011;3355;52.882;8.430;2024-03-23T09:43:36;6.53;;;2.57;;
6638;SDS011;3355;52.882;8.430;2024-03-23T09:46:03;5.80;;;2.80;;
6638;SDS011;3355;52.882;8.430;2024-03-23T09:48:28;8.03;;;2.43;;
6638;SDS011;3355;52.882;8.430;2024-03-23T09:50:55;3.83;;;2.10;;
6638;SDS011;3355;52.882;8.430;2024-03-23T09:53:20;6.73;;;2.00;;
6638;SDS011;3355;52.882;8.430;2024-03-23T09:55:47;4.20;;;2.40;;
6638;SDS011;3355;52.882;8.430;2024-03-23T09:58:13;8.00;;;3.07;;
6638;SDS011;3355;52.882;8.430;2024-03-23T10:00:41;6.37;;;2.80;;
6638;SDS011;3355;52.882;8.430;2024-03-23T10:03:07;14.97;;;3.07;;
6638;SDS011;3355;52.882;8.430;2024-03-23T10:05:36;5.13;;;1.97;;
6638;SDS011;3355;52.882;8.430;2024-03-23T10:08:02;3.30;;;2.23;;
6638;SDS011;3355;52.882;8.430;2024-03-23T10:10:43;8.53;;;2.27;;
6638;SDS011;3355;52.882;8.430;2024-03-23T10:13:08;3.70;;;2.00;;
6638;SDS011;3355;52.882;8.430;2024-03-23T10:15:35;2.97;;;1.40;;
6638;SDS011;3355;52.882;8.430;2024-03-23T10:18:03;4.70;;;1.53;;
6638;SDS011;3355;52.882;8.430;2024-03-23T10:21:06;2.90;;;1.20;;
6638;SDS011;3355;52.882;8.430;2024-03-23T10:23:33;1.80;;;1.00;;
6638;SDS011;3355;52.882;8.430;2024-03-23T10:26:04;2.27;;;0.87;;
6638;SDS011;3355;52.882;8.430;2024-03-23T10:28:38;2.90;;;0.80;;
6638;SDS011;3355;52.882;8.430;2024-03-23T10:31:15;1.30;;;0.73;;
6638;SDS011;3355;52.882;8.430;2024-03-23T10:36:24;1.10;;;0.50;;
6638;SDS011;3355;52.882;8.430;2024-03-23T10:38:52;3.93;;;0.90;;
6638;SDS011;3355;52.882;8.430;2024-03-23T10:41:17;5.50;;;0.70;;
6638;SDS011;3355;52.882;8.430;2024-03-23T10:43:45;1.47;;;0.60;;
6638;SDS011;3355;52.882;8.430;2024-03-23T10:46:10;2.07;;;0.70;;
6638;SDS011;3355;52.882;8.430;2024-03-23T10:48:37;1.93;;;0.97;;
6638;SDS011;3355;52.882;8.430;2024-03-23T10:51:03;3.27;;;0.77;;
6638;SDS011;3355;52.882;8.430;2024-03-23T10:53:34;1.60;;;1.07;;
6638;SDS011;3355;52.882;8.430;2024-03-23T10:56:00;3.23;;;0.83;;
6638;SDS011;3355;52.882;8.430;2024-03-23T10:58:27;2.93;;;1.40;;
6638;SDS011;3355;52.882;8.430;2024-03-23T11:00:56;2.00;;;1.03;;
6638;SDS011;3355;52.882;8.430;2024-03-23T11:03:29;3.27;;;1.27;;
6638;SDS011;3355;52.882;8.430;2024-03-23T11:05:55;4.90;;;1.60;;
6638;SDS011;3355;52.882;8.430;2024-03-23T11:08:29;3.40;;;1.80;;
6638;SDS011;3355;52.882;8.430;2024-03-23T11:10:57;4.93;;;1.60;;
6638;SDS011;3355;52.882;8.430;2024-03-23T11:13:37;3.03;;;1.30;;
6638;SDS011;3355;52.882;8.430;2024-03-23T11:16:12;3.90;;;1.70;;
6638;SDS011;3355;52.882;8.430;2024-03-23T11:18:39;4.43;;;1.93;;
6638;SDS011;3355;52.882;8.430;2024-03-23T11:21:05;7.60;;;3.20;;
6638;SDS011;3355;52.882;8.430;2024-03-23T11:23:36;4.70;;;2.00;;
6638;SDS011;3355;52.882;8.430;2024-03-23T11:26:02;6.57;;;2.17;;
6638;SDS011;3355;52.882;8.430;2024-03-23T11:28:32;6.27;;;2.40;;
6638;SDS011;3355;52.882;8.430;2024-03-23T11:30:58;2.30;;;1.70;;
6638;SDS011;3355;52.882;8.430;2024-03-23T11:33:25;2.53;;;1.47;;
6638;SDS011;3355;52.882;8.430;2024-03-23T11:35:52;4.60;;;1.80;;
6638;SDS011;3355;52.882;8.430;2024-03-23T11:38:22;6.93;;;2.37;;
6638;SDS011;3355;52.882;8.430;2024-03-23T11:40:47;2.80;;;1.67;;
6638;SDS011;3355;52.882;8.430;2024-03-23T11:43:16;6.10;;;1.63;;
6638;SDS011;3355;52.882;8.430;2024-03-23T11:45:42;8.90;;;2.00;;
6638;SDS011;3355;52.882;8.430;2024-03-23T11:48:09;5.20;;;1.60;;
6638;SDS011;3355;52.882;8.430;2024-03-23T11:50:36;3.23;;;2.13;;
6638;SDS011;3355;52.882;8.430;2024-03-23T11:53:09;2.30;;;1.57;;
6638;SDS011;3355;52.882;8.430;2024-03-23T11:55:47;5.97;;;1.97;;
6638;SDS011;3355;52.882;8.430;2024-03-23T11:58:16;4.47;;;1.90;;
6638;SDS011;3355;52.882;8.430;2024-03-23T12:00:42;3.30;;;1.57;;
6638;SDS011;3355;52.882;8.430;2024-03-23T12:03:09;3.00;;;1.20;;
6638;SDS011;3355;52.882;8.430;2024-03-23T12:05:35;6.23;;;1.87;;
6638;SDS011;3355;52.882;8.430;2024-03-23T12:10:50;4.10;;;1.47;;
6638;SDS011;3355;52.882;8.430;2024-03-23T12:13:18;4.37;;;1.43;;
6638;SDS011;3355;52.882;8.430;2024-03-23T12:15:47;3.73;;;1.57;;
6638;SDS011;3355;52.882;8.430;2024-03-23T12:18:14;3.03;;;1.23;;
6638;SDS011;3355;52.882;8.430;2024-03-23T12:20:42;4.83;;;1.70;;
6638;SDS011;3355;52.882;8.430;2024-03-23T12:23:09;3.30;;;1.13;;
6638;SDS011;3355;52.882;8.430;2024-03-23T12:25:35;3.77;;;1.40;;
6638;SDS011;3355;52.882;8.430;2024-03-23T12:28:08;2.07;;;0.93;;
6638;SDS011;3355;52.882;8.430;2024-03-23T12:30:38;1.93;;;0.97;;
6638;SDS011;3355;52.882;8.430;2024-03-23T12:33:08;3.60;;;1.10;;
6638;SDS011;3355;52.882;8.430;2024-03-23T12:35:33;5.63;;;1.47;;
6638;SDS011;3355;52.882;8.430;2024-03-23T12:38:00;1.50;;;0.90;;
6638;SDS011;3355;52.882;8.430;2024-03-23T12:40:25;1.77;;;0.90;;
6638;SDS011;3355;52.882;8.430;2024-03-23T12:42:52;2.47;;;0.80;;
6638;SDS011;3355;52.882;8.430;2024-03-23T12:45:21;2.27;;;0.70;;
6638;SDS011;3355;52.882;8.430;2024-03-23T12:47:49;2.20;;;1.20;;
6638;SDS011;3355;52.882;8.430;2024-03-23T12:50:17;2.83;;;1.23;;
6638;SDS011;3355;52.882;8.430;2024-03-23T12:52:43;1.73;;;0.90;;
6638;SDS011;3355;52.882;8.430;2024-03-23T12:55:12;3.00;;;1.47;;
6638;SDS011;3355;52.882;8.430;2024-03-23T12:57:37;3.53;;;1.10;;
6638;SDS011;3355;52.882;8.430;2024-03-23T13:00:04;2.77;;;1.20;;
6638;SDS011;3355;52.882;8.430;2024-03-23T13:02:30;2.70;;;1.20;;
6638;SDS011;3355;52.882;8.430;2024-03-23T13:04:57;2.30;;;1.13;;
6638;SDS011;3355;52.882;8.430;2024-03-23T13:07:23;3.20;;;1.40;;
6638;SDS011;3355;52.882;8.430;2024-03-23T13:09:50;4.20;;;1.50;;
6638;SDS011;3355;52.882;8.430;2024-03-23T13:12:15;2.67;;;1.30;;
6638;SDS011;3355;52.882;8.430;2024-03-23T13:14:42;3.43;;;1.50;;
6638;SDS011;3355;52.882;8.430;2024-03-23T13:17:13;1.50;;;1.00;;
6638;SDS011;3355;52.882;8.430;2024-03-23T13:19:40;1.63;;;0.70;;
6638;SDS011;3355;52.882;8.430;2024-03-23T13:22:07;5.10;;;0.80;;
6638;SDS011;3355;52.882;8.430;2024-03-23T13:24:36;1.63;;;0.87;;
6638;SDS011;3355;52.882;8.430;2024-03-23T13:27:01;1.97;;;0.90;;
6638;SDS011;3355;52.882;8.430;2024-03-23T13:29:29;2.50;;;0.77;;
6638;SDS011;3355;52.882;8.430;2024-03-23T13:31:55;2.10;;;1.00;;
6638;SDS011;3355;52.882;8.430;2024-03-23T13:34:21;2.97;;;1.03;;
6638;SDS011;3355;52.882;8.430;2024-03-23T13:36:47;1.20;;;0.60;;
6638;SDS011;3355;52.882;8.430;2024-03-23T13:39:15;3.00;;;0.93;;
6638;SDS011;3355;52.882;8.430;2024-03-23T13:41:41;1.73;;;0.90;;
6638;SDS011;3355;52.882;8.430;2024-03-23T13:44:08;2.23;;;0.80;;
6638;SDS011;3355;52.882;8.430;2024-03-23T13:46:33;1.20;;;0.60;;
6638;SDS011;3355;52.882;8.430;2024-03-23T13:49:00;2.03;;;0.70;;
6638;SDS011;3355;52.882;8.430;2024-03-23T13:51:26;2.17;;;0.80;;
6638;SDS011;3355;52.882;8.430;2024-03-23T13:53:53;2.60;;;0.77;;
6638;SDS011;3355;52.882;8.430;2024-03-23T13:56:19;1.60;;;0.80;;
6638;SDS011;3355;52.882;8.430;2024-03-23T13:58:49;3.63;;;0.90;;
6638;SDS011;3355;52.882;8.430;2024-03-23T14:01:14;2.03;;;1.00;;
6638;SDS011;3355;52.882;8.430;2024-03-23T14:03:41;4.23;;;1.30;;
6638;SDS011;3355;52.882;8.430;2024-03-23T14:06:07;3.47;;;0.97;;
6638;SDS011;3355;52.882;8.430;2024-03-23T14:08:33;2.33;;;1.33;;
6638;SDS011;3355;52.882;8.430;2024-03-23T14:11:00;5.50;;;1.57;;
6638;SDS011;3355;52.882;8.430;2024-03-23T14:13:29;5.73;;;1.70;;
6638;SDS011;3355;52.882;8.430;2024-03-23T14:15:55;4.27;;;2.17;;
6638;SDS011;3355;52.882;8.430;2024-03-23T14:18:23;5.40;;;1.70;;
6638;SDS011;3355;52.882;8.430;2024-03-23T14:20:52;2.87;;;1.80;;
6638;SDS011;3355;52.882;8.430;2024-03-23T14:23:18;14.13;;;6.20;;
6638;SDS011;3355;52.882;8.430;2024-03-23T14:25:44;21.43;;;10.00;;
6638;SDS011;3355;52.882;8.430;2024-03-23T14:28:10;10.53;;;6.37;;
6638;SDS011;3355;52.882;8.430;2024-03-23T14:30:41;7.33;;;2.90;;
6638;SDS011;3355;52.882;8.430;2024-03-23T14:33:08;4.47;;;1.73;;
6638;SDS011;3355;52.882;8.430;2024-03-23T14:35:33;2.73;;;1.50;;
6638;SDS011;3355;52.882;8.430;2024-03-23T14:38:00;4.00;;;1.30;;
6638;SDS011;3355;52.882;8.430;2024-03-23T14:40:31;4.50;;;1.40;;
6638;SDS011;3355;52.882;8.430;2024-03-23T14:42:58;2.60;;;1.20;;
6638;SDS011;3355;52.882;8.430;2024-03-23T14:45:23;3.40;;;1.23;;
6638;SDS011;3355;52.882;8.430;2024-03-23T14:47:54;1.70;;;1.00;;
6638;SDS011;3355;52.882;8.430;2024-03-23T14:50:20;2.07;;;1.03;;
6638;SDS011;3355;52.882;8.430;2024-03-23T14:52:46;3.57;;;1.70;;
6638;SDS011;3355;52.882;8.430;2024-03-23T14:55:12;3.90;;;1.33;;
6638;SDS011;3355;52.882;8.430;2024-03-23T14:57:42;3.43;;;1.00;;
6638;SDS011;3355;52.882;8.430;2024-03-23T15:00:08;3.00;;;1.13;;
6638;SDS011;3355;52.882;8.430;2024-03-23T15:02:37;4.77;;;1.60;;
6638;SDS011;3355;52.882;8.430;2024-03-23T15:05:04;2.97;;;1.20;;
6638;SDS011;3355;52.882;8.430;2024-03-23T15:07:36;3.17;;;1.10;;
6638;SDS011;3355;52.882;8.430;2024-03-23T15:10:05;3.80;;;1.70;;
6638;SDS011;3355;52.882;8.430;2024-03-23T15:12:33;2.73;;;1.10;;
6638;SDS011;3355;52.882;8.430;2024-03-23T15:14:59;3.47;;;1.50;;
6638;SDS011;3355;52.882;8.430;2024-03-23T15:17:25;4.37;;;1.27;;
6638;SDS011;3355;52.882;8.430;2024-03-23T15:19:54;4.70;;;1.30;;
6638;SDS011;3355;52.882;8.430;2024-03-23T15:22:21;5.00;;;1.20;;
6638;SDS011;3355;52.882;8.430;2024-03-23T15:24:47;5.83;;;2.70;;
6638;SDS011;3355;52.882;8.430;2024-03-23T15:27:14;2.20;;;1.20;;
6638;SDS011;3355;52.882;8.430;2024-03-23T15:29:39;3.03;;;0.97;;
6638;SDS011;3355;52.882;8.430;2024-03-23T15:32:07;1.47;;;0.83;;
6638;SDS011;3355;52.882;8.430;2024-03-23T15:34:32;3.33;;;0.83;;
6638;SDS011;3355;52.882;8.430;2024-03-23T15:36:59;1.40;;;0.70;;
6638;SDS011;3355;52.882;8.430;2024-03-23T15:39:26;2.57;;;0.90;;
6638;SDS011;3355;52.882;8.430;2024-03-23T15:41:52;1.20;;;0.73;;
6638;SDS011;3355;52.882;8.430;2024-03-23T15:44:19;1.43;;;0.80;;
6638;SDS011;3355;52.882;8.430;2024-03-23T15:46:46;1.37;;;0.70;;
6638;SDS011;3355;52.882;8.430;2024-03-23T15:49:11;2.07;;;0.70;;
6638;SDS011;3355;52.882;8.430;2024-03-23T15:51:37;2.03;;;1.00;;
6638;SDS011;3355;52.882;8.430;2024-03-23T15:54:04;2.50;;;1.60;;
6638;SDS011;3355;52.882;8.430;2024-03-23T15:56:32;4.60;;;1.20;;
6638;SDS011;3355;52.882;8.430;2024-03-23T15:58:58;2.00;;;0.80;;
6638;SDS011;3355;52.882;8.430;2024-03-23T16:01:30;3.37;;;1.07;;
6638;SDS011;3355;52.882;8.430;2024-03-23T16:03:58;3.00;;;0.90;;
6638;SDS011;3355;52.882;8.430;2024-03-23T16:06:27;3.70;;;1.33;;
6638;SDS011;3355;52.882;8.430;2024-03-23T16:08:53;3.13;;;1.20;;
6638;SDS011;3355;52.882;8.430;2024-03-23T16:11:19;3.50;;;1.27;;
6638;SDS011;3355;52.882;8.430;2024-03-23T16:13:46;4.33;;;1.80;;
6638;SDS011;3355;52.882;8.430;2024-03-23T16:16:12;4.03;;;1.43;;
6638;SDS011;3355;52.882;8.430;2024-03-23T16:18:39;2.40;;;1.23;;
6638;SDS011;3355;52.882;8.430;2024-03-23T16:21:05;2.70;;;1.43;;
6638;SDS011;3355;52.882;8.430;2024-03-23T16:23:31;2.30;;;1.30;;
6638;SDS011;3355;52.882;8.430;2024-03-23T16:25:58;5.10;;;1.20;;
6638;SDS011;3355;52.882;8.430;2024-03-23T16:28:24;2.00;;;0.93;;
6638;SDS011;3355;52.882;8.430;2024-03-23T16:30:58;4.10;;;1.50;;
6638;SDS011;3355;52.882;8.430;2024-03-23T16:33:24;4.07;;;1.27;;
6638;SDS011;3355;52.882;8.430;2024-03-23T16:36:00;2.83;;;1.00;;
6638;SDS011;3355;52.882;8.430;2024-03-23T16:38:26;3.87;;;2.00;;
6638;SDS011;3355;52.882;8.430;2024-03-23T16:40:53;4.53;;;1.57;;
6638;SDS011;3355;52.882;8.430;2024-03-23T16:43:19;4.27;;;1.20;;
6638;SDS011;3355;52.882;8.430;2024-03-23T16:45:50;2.13;;;1.10;;
6638;SDS011;3355;52.882;8.430;2024-03-23T16:48:17;3.10;;;1.17;;
6638;SDS011;3355;52.882;8.430;2024-03-23T16:50:55;3.80;;;1.43;;
6638;SDS011;3355;52.882;8.430;2024-03-23T16:53:21;3.80;;;1.70;;
6638;SDS011;3355;52.882;8.430;2024-03-23T16:55:53;1.87;;;0.80;;
6638;SDS011;3355;52.882;8.430;2024-03-23T16:58:20;2.43;;;1.00;;
6638;SDS011;3355;52.882;8.430;2024-03-23T17:00:46;10.43;;;5.13;;
6638;SDS011;3355;52.882;8.430;2024-03-23T17:03:15;5.80;;;2.20;;
6638;SDS011;3355;52.882;8.430;2024-03-23T17:05:43;2.07;;;1.10;;
6638;SDS011;3355;52.882;8.430;2024-03-23T17:08:15;3.10;;;1.00;;
6638;SDS011;3355;52.882;8.430;2024-03-23T17:10:41;5.83;;;0.90;;
6638;SDS011;3355;52.882;8.430;2024-03-23T17:13:07;1.80;;;0.90;;
6638;SDS011;3355;52.882;8.430;2024-03-23T17:15:41;3.30;;;1.03;;
6638;SDS011;3355;52.882;8.430;2024-03-23T17:18:16;2.60;;;0.80;;
6638;SDS011;3355;52.882;8.430;2024-03-23T17:20:46;2.43;;;0.80;;
6638;SDS011;3355;52.882;8.430;2024-03-23T17:23:12;2.07;;;0.80;;
6638;SDS011;3355;52.882;8.430;2024-03-23T17:25:38;1.67;;;0.60;;
6638;SDS011;3355;52.882;8.430;2024-03-23T17:28:04;4.30;;;0.90;;
6638;SDS011;3355;52.882;8.430;2024-03-23T17:30:30;4.93;;;1.30;;
6638;SDS011;3355;52.882;8.430;2024-03-23T17:32:56;3.70;;;1.13;;
6638;SDS011;3355;52.882;8.430;2024-03-23T17:35:22;2.93;;;1.20;;
6638;SDS011;3355;52.882;8.430;2024-03-23T17:37:49;3.33;;;0.93;;
6638;SDS011;3355;52.882;8.430;2024-03-23T17:40:15;2.87;;;1.20;;
6638;SDS011;3355;52.882;8.430;2024-03-23T17:42:41;4.23;;;1.30;;
6638;SDS011;3355;52.882;8.430;2024-03-23T17:45:08;1.70;;;0.73;;
6638;SDS011;3355;52.882;8.430;2024-03-23T17:47:36;4.03;;;1.10;;
6638;SDS011;3355;52.882;8.430;2024-03-23T17:50:03;3.50;;;1.20;;
6638;SDS011;3355;52.882;8.430;2024-03-23T17:52:29;6.10;;;1.50;;
6638;SDS011;3355;52.882;8.430;2024-03-23T17:54:56;2.00;;;1.20;;
6638;SDS011;3355;52.882;8.430;2024-03-23T17:57:22;3.30;;;1.40;;
6638;SDS011;3355;52.882;8.430;2024-03-23T17:59:48;4.73;;;1.50;;
6638;SDS011;3355;52.882;8.430;2024-03-23T18:02:14;3.77;;;1.30;;
6638;SDS011;3355;52.882;8.430;2024-03-23T18:04:40;4.77;;;1.80;;
6638;SDS011;3355;52.882;8.430;2024-03-23T18:07:06;2.63;;;1.20;;
6638;SDS011;3355;52.882;8.430;2024-03-23T18:09:32;4.10;;;1.60;;
6638;SDS011;3355;52.882;8.430;2024-03-23T18:11:59;4.93;;;1.43;;
6638;SDS011;3355;52.882;8.430;2024-03-23T18:14:27;4.53;;;1.63;;
6638;SDS011;3355;52.882;8.430;2024-03-23T18:16:52;3.80;;;1.40;;
6638;SDS011;3355;52.882;8.430;2024-03-23T18:19:19;6.17;;;1.47;;
6638;SDS011;3355;52.882;8.430;2024-03-23T18:21:44;2.13;;;1.30;;
6638;SDS011;3355;52.882;8.430;2024-03-23T18:24:11;5.87;;;1.70;;
6638;SDS011;3355;52.882;8.430;2024-03-23T18:26:36;4.13;;;1.67;;
6638;SDS011;3355;52.882;8.430;2024-03-23T18:29:04;4.77;;;2.60;;
6638;SDS011;3355;52.882;8.430;2024-03-23T18:31:29;3.63;;;1.20;;
6638;SDS011;3355;52.882;8.430;2024-03-23T18:33:56;4.37;;;1.40;;
6638;SDS011;3355;52.882;8.430;2024-03-23T18:36:22;4.20;;;1.60;;
6638;SDS011;3355;52.882;8.430;2024-03-23T18:38:48;4.37;;;1.20;;
6638;SDS011;3355;52.882;8.430;2024-03-23T18:41:13;2.87;;;1.37;;
6638;SDS011;3355;52.882;8.430;2024-03-23T18:43:40;2.40;;;1.07;;
6638;SDS011;3355;52.882;8.430;2024-03-23T18:46:07;2.23;;;1.27;;
6638;SDS011;3355;52.882;8.430;2024-03-23T18:48:33;1.93;;;1.03;;
6638;SDS011;3355;52.882;8.430;2024-03-23T18:51:01;2.90;;;1.00;;
6638;SDS011;3355;52.882;8.430;2024-03-23T18:53:28;5.70;;;1.13;;
6638;SDS011;3355;52.882;8.430;2024-03-23T18:55:53;6.37;;;1.43;;
6638;SDS011;3355;52.882;8.430;2024-03-23T18:58:20;3.47;;;1.37;;
6638;SDS011;3355;52.882;8.430;2024-03-23T19:00:45;4.33;;;1.27;;
6638;SDS011;3355;52.882;8.430;2024-03-23T19:03:13;3.53;;;1.70;;
6638;SDS011;3355;52.882;8.430;2024-03-23T19:05:39;5.80;;;1.33;;
6638;SDS011;3355;52.882;8.430;2024-03-23T19:08:05;4.60;;;1.80;;
6638;SDS011;3355;52.882;8.430;2024-03-23T19:10:31;5.47;;;1.33;;
6638;SDS011;3355;52.882;8.430;2024-03-23T19:12:57;2.60;;;1.30;;
6638;SDS011;3355;52.882;8.430;2024-03-23T19:15:23;3.33;;;1.50;;
6638;SDS011;3355;52.882;8.430;2024-03-23T19:17:52;3.53;;;1.70;;
6638;SDS011;3355;52.882;8.430;2024-03-23T19:20:18;4.93;;;1.90;;
6638;SDS011;3355;52.882;8.430;2024-03-23T19:22:45;4.00;;;1.97;;
6638;SDS011;3355;52.882;8.430;2024-03-23T19:25:19;3.00;;;1.23;;
6638;SDS011;3355;52.882;8.430;2024-03-23T19:27:45;1.93;;;1.03;;
6638;SDS011;3355;52.882;8.430;2024-03-23T19:30:11;9.87;;;2.13;;
6638;SDS011;3355;52.882;8.430;2024-03-23T19:32:37;3.20;;;2.03;;
6638;SDS011;3355;52.882;8.430;2024-03-23T19:35:03;7.73;;;1.87;;
6638;SDS011;3355;52.882;8.430;2024-03-23T19:37:31;3.67;;;1.43;;
6638;SDS011;3355;52.882;8.430;2024-03-23T19:39:56;6.60;;;1.70;;
6638;SDS011;3355;52.882;8.430;2024-03-23T19:42:23;4.67;;;1.50;;
6638;SDS011;3355;52.882;8.430;2024-03-23T19:44:48;2.93;;;1.47;;
6638;SDS011;3355;52.882;8.430;2024-03-23T19:47:15;2.43;;;1.20;;
6638;SDS011;3355;52.882;8.430;2024-03-23T19:49:40;11.03;;;1.63;;
6638;SDS011;3355;52.882;8.430;2024-03-23T19:52:06;1.97;;;1.17;;
6638;SDS011;3355;52.882;8.430;2024-03-23T19:54:33;2.30;;;1.43;;
6638;SDS011;3355;52.882;8.430;2024-03-23T19:57:00;6.17;;;2.00;;
6638;SDS011;3355;52.882;8.430;2024-03-23T19:59:27;9.23;;;1.73;;
6638;SDS011;3355;52.882;8.430;2024-03-23T20:01:54;4.23;;;1.97;;
6638;SDS011;3355;52.882;8.430;2024-03-23T20:04:19;2.67;;;1.30;;
6638;SDS011;3355;52.882;8.430;2024-03-23T20:06:46;4.77;;;1.30;;
6638;SDS011;3355;52.882;8.430;2024-03-23T20:09:11;2.70;;;1.90;;
6638;SDS011;3355;52.882;8.430;2024-03-23T20:11:40;3.07;;;1.43;;
6638;SDS011;3355;52.882;8.430;2024-03-23T20:14:05;5.73;;;1.60;;
6638;SDS011;3355;52.882;8.430;2024-03-23T20:16:31;2.50;;;1.53;;
6638;SDS011;3355;52.882;8.430;2024-03-23T20:19:00;2.50;;;1.87;;
6638;SDS011;3355;52.882;8.430;2024-03-23T20:21:27;3.33;;;1.70;;
6638;SDS011;3355;52.882;8.430;2024-03-23T20:23:52;3.43;;;1.50;;
6638;SDS011;3355;52.882;8.430;2024-03-23T20:26:19;3.50;;;1.40;;
6638;SDS011;3355;52.882;8.430;2024-03-23T20:28:45;4.30;;;2.20;;
6638;SDS011;3355;52.882;8.430;2024-03-23T20:31:12;2.87;;;1.63;;
6638;SDS011;3355;52.882;8.430;2024-03-23T20:33:37;2.27;;;1.47;;
6638;SDS011;3355;52.882;8.430;2024-03-23T20:36:04;7.77;;;1.90;;
6638;SDS011;3355;52.882;8.430;2024-03-23T20:38:29;4.37;;;1.60;;
6638;SDS011;3355;52.882;8.430;2024-03-23T20:40:56;3.60;;;1.80;;
6638;SDS011;3355;52.882;8.430;2024-03-23T20:43:23;4.57;;;1.50;;
6638;SDS011;3355;52.882;8.430;2024-03-23T20:45:55;2.60;;;1.70;;
6638;SDS011;3355;52.882;8.430;2024-03-23T20:48:22;3.13;;;1.90;;
6638;SDS011;3355;52.882;8.430;2024-03-23T20:50:55;1.90;;;1.47;;
6638;SDS011;3355;52.882;8.430;2024-03-23T20:53:20;6.03;;;2.17;;
6638;SDS011;3355;52.882;8.430;2024-03-23T20:55:49;2.80;;;1.90;;
6638;SDS011;3355;52.882;8.430;2024-03-23T20:58:15;4.20;;;1.80;;
6638;SDS011;3355;52.882;8.430;2024-03-23T21:00:41;4.60;;;1.20;;
6638;SDS011;3355;52.882;8.430;2024-03-23T21:03:08;14.97;;;3.77;;
6638;SDS011;3355;52.882;8.430;2024-03-23T21:05:34;3.90;;;1.87;;
6638;SDS011;3355;52.882;8.430;2024-03-23T21:07:59;3.20;;;1.73;;
6638;SDS011;3355;52.882;8.430;2024-03-23T21:10:26;4.53;;;1.63;;
6638;SDS011;3355;52.882;8.430;2024-03-23T21:12:52;3.10;;;1.90;;
6638;SDS011;3355;52.882;8.430;2024-03-23T21:15:18;3.03;;;2.03;;
6638;SDS011;3355;52.882;8.430;2024-03-23T21:17:44;3.20;;;2.13;;
6638;SDS011;3355;52.882;8.430;2024-03-23T21:20:11;3.53;;;2.23;;
6638;SDS011;3355;52.882;8.430;2024-03-23T21:22:37;5.13;;;1.80;;